sensor_id;sensor_type;location;lat;lon;timestamp;temperature;humidity
52609;DHT22;38503;48.544;12.142;2022-08-11T00:00:03;16.70;1.00
52609;DHT22;38503;48.544;12.142;2022-08-11T00:02:37;16.60;1.00
52609;DHT22;38503;48.544;12.142;2022-08-11T00:05:13;16.60;1.00
52609;DHT22;38503;48.544;12.142;2022-08-11T00:07:46;16.60;1.00
52609;DHT22;38503;48.544;12.142;2022-08-11T00:10:22;16.60;1.00
52609;DHT22;38503;48.544;12.142;2022-08-11T00:12:56;16.60;1.00
52609;DHT22;38503;48.544;12.142;2022-08-11T00:15:25;16.60;1.00
52609;DHT22;38503;48.544;12.142;2022-08-11T00:17:59;16.50;1.00
52609;DHT22;38503;48.544;12.142;2022-08-11T00:20:31;16.50;1.00
52609;DHT22;38503;48.544;12.142;2022-08-11T00:23:08;16.50;1.00
52609;DHT22;38503;48.544;12.142;2022-08-11T00:25:46;16.40;1.00
52609;DHT22;38503;48.544;12.142;2022-08-11T00:28:31;16.40;1.00
52609;DHT22;38503;48.544;12.142;2022-08-11T00:31:07;16.40;1.00
52609;DHT22;38503;48.544;12.142;2022-08-11T00:33:46;16.40;1.00
52609;DHT22;38503;48.544;12.142;2022-08-11T00:36:15;16.30;1.00
52609;DHT22;38503;48.544;12.142;2022-08-11T00:38:51;16.30;1.00
52609;DHT22;38503;48.544;12.142;2022-08-11T00:41:31;16.30;1.00
52609;DHT22;38503;48.544;12.142;2022-08-11T01:01:25;16.00;1.00
52609;DHT22;38503;48.544;12.142;2022-08-11T01:06:50;16.00;1.00
52609;DHT22;38503;48.544;12.142;2022-08-11T01:09:43;15.90;1.00
52609;DHT22;38503;48.544;12.142;2022-08-11T01:24:21;15.90;1.00
52609;DHT22;38503;48.544;12.142;2022-08-11T01:46:51;15.70;1.00
52609;DHT22;38503;48.544;12.142;2022-08-11T01:49:39;15.70;1.00
52609;DHT22;38503;48.544;12.142;2022-08-11T01:56:00;15.70;1.00
52609;DHT22;38503;48.544;12.142;2022-08-11T02:12:31;15.60;1.00
52609;DHT22;38503;48.544;12.142;2022-08-11T02:20:40;15.50;1.00
52609;DHT22;38503;48.544;12.142;2022-08-11T02:23:42;15.50;1.00
52609;DHT22;38503;48.544;12.142;2022-08-11T02:29:23;15.50;1.00
52609;DHT22;38503;48.544;12.142;2022-08-11T02:35:34;15.50;1.00
52609;DHT22;38503;48.544;12.142;2022-08-11T02:43:59;15.50;1.00
52609;DHT22;38503;48.544;12.142;2022-08-11T02:46:35;15.50;1.00
52609;DHT22;38503;48.544;12.142;2022-08-11T02:54:37;15.40;1.00
52609;DHT22;38503;48.544;12.142;2022-08-11T02:57:18;15.40;1.00
52609;DHT22;38503;48.544;12.142;2022-08-11T02:59:56;15.40;1.00
52609;DHT22;38503;48.544;12.142;2022-08-11T03:05:17;15.40;1.00
52609;DHT22;38503;48.544;12.142;2022-08-11T03:08:28;15.40;1.00
52609;DHT22;38503;48.544;12.142;2022-08-11T03:14:16;15.40;1.00
52609;DHT22;38503;48.544;12.142;2022-08-11T03:23:03;15.30;1.00
52609;DHT22;38503;48.544;12.142;2022-08-11T03:31:15;15.20;1.00
52609;DHT22;38503;48.544;12.142;2022-08-11T03:33:53;15.20;1.00
52609;DHT22;38503;48.544;12.142;2022-08-11T03:45:57;14.90;1.00
52609;DHT22;38503;48.544;12.142;2022-08-11T03:51:58;14.80;1.00
52609;DHT22;38503;48.544;12.142;2022-08-11T04:37:45;15.20;1.00
52609;DHT22;38503;48.544;12.142;2022-08-11T04:53:33;15.50;1.00
52609;DHT22;38503;48.544;12.142;2022-08-11T05:13:49;16.20;1.00
52609;DHT22;38503;48.544;12.142;2022-08-11T05:16:49;16.30;1.00
52609;DHT22;38503;48.544;12.142;2022-08-11T05:19:35;16.40;1.00
52609;DHT22;38503;48.544;12.142;2022-08-11T05:22:26;16.60;1.00
52609;DHT22;38503;48.544;12.142;2022-08-11T05:25:30;16.70;1.00
52609;DHT22;38503;48.544;12.142;2022-08-11T05:28:50;16.80;1.00
52609;DHT22;38503;48.544;12.142;2022-08-11T05:31:54;17.00;1.00
52609;DHT22;38503;48.544;12.142;2022-08-11T05:40:09;17.60;1.00
52609;DHT22;38503;48.544;12.142;2022-08-11T05:43:07;17.80;1.00
52609;DHT22;38503;48.544;12.142;2022-08-11T05:46:04;17.80;1.00
52609;DHT22;38503;48.544;12.142;2022-08-11T05:48:52;17.90;99.90
52609;DHT22;38503;48.544;12.142;2022-08-11T05:51:40;18.20;99.90
52609;DHT22;38503;48.544;12.142;2022-08-11T05:54:39;19.20;1.00
52609;DHT22;38503;48.544;12.142;2022-08-11T05:57:35;22.10;1.00
52609;DHT22;38503;48.544;12.142;2022-08-11T06:00:17;24.70;99.90
52609;DHT22;38503;48.544;12.142;2022-08-11T06:02:49;25.20;56.70
52609;DHT22;38503;48.544;12.142;2022-08-11T06:05:17;25.90;1.00
52609;DHT22;38503;48.544;12.142;2022-08-11T06:07:47;26.00;1.00
52609;DHT22;38503;48.544;12.142;2022-08-11T06:10:33;26.20;1.00
52609;DHT22;38503;48.544;12.142;2022-08-11T06:13:02;26.60;1.00
52609;DHT22;38503;48.544;12.142;2022-08-11T06:15:32;27.40;1.00
52609;DHT22;38503;48.544;12.142;2022-08-11T06:18:00;27.00;1.00
52609;DHT22;38503;48.544;12.142;2022-08-11T06:20:29;26.90;1.00
52609;DHT22;38503;48.544;12.142;2022-08-11T06:23:04;27.40;1.00
52609;DHT22;38503;48.544;12.142;2022-08-11T06:25:34;28.00;1.00
52609;DHT22;38503;48.544;12.142;2022-08-11T06:28:06;27.60;1.00
52609;DHT22;38503;48.544;12.142;2022-08-11T06:30:36;28.00;1.00
52609;DHT22;38503;48.544;12.142;2022-08-11T06:33:10;28.00;1.00
52609;DHT22;38503;48.544;12.142;2022-08-11T06:41:44;28.20;1.00
52609;DHT22;38503;48.544;12.142;2022-08-11T06:44:14;27.90;1.00
52609;DHT22;38503;48.544;12.142;2022-08-11T06:46:46;29.00;1.00
52609;DHT22;38503;48.544;12.142;2022-08-11T06:49:21;28.70;1.00
52609;DHT22;38503;48.544;12.142;2022-08-11T06:52:10;28.50;1.00
52609;DHT22;38503;48.544;12.142;2022-08-11T06:55:07;28.20;1.00
52609;DHT22;38503;48.544;12.142;2022-08-11T06:57:56;30.00;1.00
52609;DHT22;38503;48.544;12.142;2022-08-11T07:00:43;29.20;1.00
52609;DHT22;38503;48.544;12.142;2022-08-11T07:03:16;28.90;1.00
52609;DHT22;38503;48.544;12.142;2022-08-11T07:05:54;29.60;1.00
52609;DHT22;38503;48.544;12.142;2022-08-11T07:12:07;28.30;1.00
52609;DHT22;38503;48.544;12.142;2022-08-11T07:15:01;29.30;1.00
52609;DHT22;38503;48.544;12.142;2022-08-11T07:17:52;29.50;1.00
52609;DHT22;38503;48.544;12.142;2022-08-11T07:20:39;29.90;1.00
52609;DHT22;38503;48.544;12.142;2022-08-11T07:23:31;29.70;1.00
52609;DHT22;38503;48.544;12.142;2022-08-11T07:26:19;29.70;1.00
52609;DHT22;38503;48.544;12.142;2022-08-11T07:29:06;30.40;1.00
52609;DHT22;38503;48.544;12.142;2022-08-11T07:31:49;30.20;1.00
52609;DHT22;38503;48.544;12.142;2022-08-11T07:36:55;29.50;1.00
52609;DHT22;38503;48.544;12.142;2022-08-11T07:39:30;28.50;1.00
52609;DHT22;38503;48.544;12.142;2022-08-11T07:41:59;27.00;1.00
52609;DHT22;38503;48.544;12.142;2022-08-11T07:44:30;27.50;1.00
52609;DHT22;38503;48.544;12.142;2022-08-11T07:47:18;28.60;1.00
52609;DHT22;38503;48.544;12.142;2022-08-11T07:50:04;28.90;1.00
52609;DHT22;38503;48.544;12.142;2022-08-11T07:52:51;28.20;1.00
52609;DHT22;38503;48.544;12.142;2022-08-11T07:55:21;28.50;1.00
52609;DHT22;38503;48.544;12.142;2022-08-11T07:58:10;27.60;1.00
52609;DHT22;38503;48.544;12.142;2022-08-11T08:01:11;28.00;1.00
52609;DHT22;38503;48.544;12.142;2022-08-11T08:03:58;27.40;1.00
52609;DHT22;38503;48.544;12.142;2022-08-11T08:06:44;29.60;1.00
52609;DHT22;38503;48.544;12.142;2022-08-11T08:09:33;29.50;1.00
52609;DHT22;38503;48.544;12.142;2022-08-11T08:12:23;29.00;1.00
52609;DHT22;38503;48.544;12.142;2022-08-11T08:15:10;29.30;1.00
52609;DHT22;38503;48.544;12.142;2022-08-11T08:17:57;29.80;1.00
52609;DHT22;38503;48.544;12.142;2022-08-11T08:20:47;29.30;1.00
52609;DHT22;38503;48.544;12.142;2022-08-11T08:23:18;30.60;1.00
52609;DHT22;38503;48.544;12.142;2022-08-11T08:26:12;29.90;1.00
52609;DHT22;38503;48.544;12.142;2022-08-11T08:29:01;28.20;1.00
52609;DHT22;38503;48.544;12.142;2022-08-11T08:31:48;29.10;1.00
52609;DHT22;38503;48.544;12.142;2022-08-11T08:34:15;29.90;1.00
52609;DHT22;38503;48.544;12.142;2022-08-11T08:36:47;29.50;1.00
52609;DHT22;38503;48.544;12.142;2022-08-11T08:39:19;29.90;1.00
52609;DHT22;38503;48.544;12.142;2022-08-11T08:41:56;29.00;1.00
52609;DHT22;38503;48.544;12.142;2022-08-11T08:44:25;28.80;1.00
52609;DHT22;38503;48.544;12.142;2022-08-11T08:47:06;29.30;1.00
52609;DHT22;38503;48.544;12.142;2022-08-11T08:49:38;29.70;1.00
52609;DHT22;38503;48.544;12.142;2022-08-11T08:52:13;29.70;1.00
52609;DHT22;38503;48.544;12.142;2022-08-11T08:55:03;29.30;1.00
52609;DHT22;38503;48.544;12.142;2022-08-11T08:57:33;29.10;1.00
52609;DHT22;38503;48.544;12.142;2022-08-11T09:00:08;28.90;1.00
52609;DHT22;38503;48.544;12.142;2022-08-11T09:02:41;29.90;1.00
52609;DHT22;38503;48.544;12.142;2022-08-11T09:05:09;30.30;1.00
52609;DHT22;38503;48.544;12.142;2022-08-11T09:07:36;30.00;1.00
52609;DHT22;38503;48.544;12.142;2022-08-11T09:10:07;30.00;1.00
52609;DHT22;38503;48.544;12.142;2022-08-11T09:12:35;29.30;1.00
52609;DHT22;38503;48.544;12.142;2022-08-11T09:15:06;28.40;1.00
52609;DHT22;38503;48.544;12.142;2022-08-11T09:17:44;28.60;1.00
52609;DHT22;38503;48.544;12.142;2022-08-11T09:20:16;28.10;1.00
52609;DHT22;38503;48.544;12.142;2022-08-11T09:22:44;28.20;1.00
52609;DHT22;38503;48.544;12.142;2022-08-11T09:25:54;28.70;1.00
52609;DHT22;38503;48.544;12.142;2022-08-11T09:28:44;30.50;1.00
52609;DHT22;38503;48.544;12.142;2022-08-11T09:31:13;29.20;1.00
52609;DHT22;38503;48.544;12.142;2022-08-11T09:33:42;30.10;1.00
52609;DHT22;38503;48.544;12.142;2022-08-11T09:36:12;28.80;1.00
52609;DHT22;38503;48.544;12.142;2022-08-11T09:38:59;28.90;1.00
52609;DHT22;38503;48.544;12.142;2022-08-11T09:41:50;28.80;1.00
52609;DHT22;38503;48.544;12.142;2022-08-11T09:44:33;29.00;1.00
52609;DHT22;38503;48.544;12.142;2022-08-11T09:47:27;29.30;1.00
52609;DHT22;38503;48.544;12.142;2022-08-11T09:49:57;29.20;1.00
52609;DHT22;38503;48.544;12.142;2022-08-11T09:52:35;30.30;1.00
52609;DHT22;38503;48.544;12.142;2022-08-11T09:55:04;29.90;1.00
52609;DHT22;38503;48.544;12.142;2022-08-11T09:57:40;29.10;1.00
52609;DHT22;38503;48.544;12.142;2022-08-11T10:00:30;27.90;1.00
52609;DHT22;38503;48.544;12.142;2022-08-11T10:02:58;28.80;1.00
52609;DHT22;38503;48.544;12.142;2022-08-11T10:05:28;30.00;1.00
52609;DHT22;38503;48.544;12.142;2022-08-11T10:08:17;30.60;1.00
52609;DHT22;38503;48.544;12.142;2022-08-11T10:10:45;30.60;1.00
52609;DHT22;38503;48.544;12.142;2022-08-11T10:13:18;31.20;1.00
52609;DHT22;38503;48.544;12.142;2022-08-11T10:16:11;31.00;1.00
52609;DHT22;38503;48.544;12.142;2022-08-11T10:18:46;30.50;1.00
52609;DHT22;38503;48.544;12.142;2022-08-11T10:21:27;30.10;1.00
52609;DHT22;38503;48.544;12.142;2022-08-11T10:23:58;29.30;1.00
52609;DHT22;38503;48.544;12.142;2022-08-11T10:26:46;30.00;1.00
52609;DHT22;38503;48.544;12.142;2022-08-11T10:29:38;29.30;1.00
52609;DHT22;38503;48.544;12.142;2022-08-11T10:32:27;29.90;1.00
52609;DHT22;38503;48.544;12.142;2022-08-11T10:35:29;29.20;1.00
52609;DHT22;38503;48.544;12.142;2022-08-11T10:37:58;30.20;1.00
52609;DHT22;38503;48.544;12.142;2022-08-11T10:40:38;29.40;1.00
52609;DHT22;38503;48.544;12.142;2022-08-11T10:43:07;29.20;1.00
52609;DHT22;38503;48.544;12.142;2022-08-11T10:46:00;28.80;1.00
52609;DHT22;38503;48.544;12.142;2022-08-11T10:48:57;28.90;1.00
52609;DHT22;38503;48.544;12.142;2022-08-11T10:51:25;29.80;1.00
52609;DHT22;38503;48.544;12.142;2022-08-11T10:54:19;29.80;1.00
52609;DHT22;38503;48.544;12.142;2022-08-11T10:57:05;30.50;1.00
52609;DHT22;38503;48.544;12.142;2022-08-11T10:59:53;30.60;1.00
52609;DHT22;38503;48.544;12.142;2022-08-11T11:02:21;30.70;1.00
52609;DHT22;38503;48.544;12.142;2022-08-11T11:05:03;29.90;1.00
52609;DHT22;38503;48.544;12.142;2022-08-11T11:07:51;29.00;1.00
52609;DHT22;38503;48.544;12.142;2022-08-11T11:10:20;29.60;1.00
52609;DHT22;38503;48.544;12.142;2022-08-11T11:12:53;30.90;1.00
52609;DHT22;38503;48.544;12.142;2022-08-11T11:15:43;30.50;1.00
52609;DHT22;38503;48.544;12.142;2022-08-11T11:18:36;30.30;1.00
52609;DHT22;38503;48.544;12.142;2022-08-11T11:21:07;30.50;1.00
52609;DHT22;38503;48.544;12.142;2022-08-11T11:26:40;31.50;1.00
52609;DHT22;38503;48.544;12.142;2022-08-11T11:35:36;31.00;1.00
52609;DHT22;38503;48.544;12.142;2022-08-11T11:37:38;29.60;1.00
52609;DHT22;38503;48.544;12.142;2022-08-11T11:40:26;29.20;1.00
52609;DHT22;38503;48.544;12.142;2022-08-11T11:42:58;29.30;1.00
52609;DHT22;38503;48.544;12.142;2022-08-11T11:45:26;29.70;1.00
52609;DHT22;38503;48.544;12.142;2022-08-11T11:47:55;29.60;1.00
52609;DHT22;38503;48.544;12.142;2022-08-11T11:50:30;29.20;1.00
52609;DHT22;38503;48.544;12.142;2022-08-11T11:53:05;29.60;1.00
52609;DHT22;38503;48.544;12.142;2022-08-11T11:55:32;29.50;1.00
52609;DHT22;38503;48.544;12.142;2022-08-11T11:58:00;29.50;1.00
52609;DHT22;38503;48.544;12.142;2022-08-11T12:00:48;28.70;1.00
52609;DHT22;38503;48.544;12.142;2022-08-11T12:03:35;28.40;1.00
52609;DHT22;38503;48.544;12.142;2022-08-11T12:06:04;29.00;1.00
52609;DHT22;38503;48.544;12.142;2022-08-11T12:08:32;29.80;1.00
52609;DHT22;38503;48.544;12.142;2022-08-11T12:11:06;30.00;1.00
52609;DHT22;38503;48.544;12.142;2022-08-11T12:13:54;30.20;1.00
52609;DHT22;38503;48.544;12.142;2022-08-11T12:16:23;30.20;1.00
52609;DHT22;38503;48.544;12.142;2022-08-11T12:19:11;30.50;1.00
52609;DHT22;38503;48.544;12.142;2022-08-11T12:21:39;30.30;1.00
52609;DHT22;38503;48.544;12.142;2022-08-11T12:24:29;30.10;1.00
52609;DHT22;38503;48.544;12.142;2022-08-11T12:27:15;30.00;1.00
52609;DHT22;38503;48.544;12.142;2022-08-11T12:29:57;30.10;1.00
52609;DHT22;38503;48.544;12.142;2022-08-11T12:32:30;30.10;1.00
52609;DHT22;38503;48.544;12.142;2022-08-11T12:34:58;30.80;1.00
52609;DHT22;38503;48.544;12.142;2022-08-11T12:37:31;31.50;1.00
52609;DHT22;38503;48.544;12.142;2022-08-11T12:40:10;31.30;1.00
52609;DHT22;38503;48.544;12.142;2022-08-11T12:43:21;31.10;1.00
52609;DHT22;38503;48.544;12.142;2022-08-11T12:46:11;30.70;1.00
52609;DHT22;38503;48.544;12.142;2022-08-11T12:48:48;29.90;1.00
52609;DHT22;38503;48.544;12.142;2022-08-11T12:51:49;29.80;1.00
52609;DHT22;38503;48.544;12.142;2022-08-11T12:57:29;29.50;1.00
52609;DHT22;38503;48.544;12.142;2022-08-11T13:00:17;29.20;1.00
52609;DHT22;38503;48.544;12.142;2022-08-11T13:03:06;29.00;1.00
52609;DHT22;38503;48.544;12.142;2022-08-11T13:05:54;29.10;1.00
52609;DHT22;38503;48.544;12.142;2022-08-11T13:08:26;30.00;1.00
52609;DHT22;38503;48.544;12.142;2022-08-11T13:10:57;29.70;1.00
52609;DHT22;38503;48.544;12.142;2022-08-11T13:13:44;30.00;1.00
52609;DHT22;38503;48.544;12.142;2022-08-11T13:16:28;30.00;1.00
52609;DHT22;38503;48.544;12.142;2022-08-11T13:18:59;30.30;1.00
52609;DHT22;38503;48.544;12.142;2022-08-11T13:21:27;29.00;1.00
52609;DHT22;38503;48.544;12.142;2022-08-11T13:23:55;29.30;1.00
52609;DHT22;38503;48.544;12.142;2022-08-11T13:26:32;29.60;1.00
52609;DHT22;38503;48.544;12.142;2022-08-11T13:29:21;29.40;1.00
52609;DHT22;38503;48.544;12.142;2022-08-11T13:31:49;29.30;1.00
52609;DHT22;38503;48.544;12.142;2022-08-11T13:34:18;29.50;1.00
52609;DHT22;38503;48.544;12.142;2022-08-11T13:36:52;29.30;1.00
52609;DHT22;38503;48.544;12.142;2022-08-11T13:39:23;29.20;1.00
52609;DHT22;38503;48.544;12.142;2022-08-11T13:41:53;28.70;1.00
52609;DHT22;38503;48.544;12.142;2022-08-11T13:44:25;28.70;1.00
52609;DHT22;38503;48.544;12.142;2022-08-11T13:47:01;28.30;1.00
52609;DHT22;38503;48.544;12.142;2022-08-11T13:49:31;28.20;1.00
52609;DHT22;38503;48.544;12.142;2022-08-11T13:51:58;28.60;1.00
52609;DHT22;38503;48.544;12.142;2022-08-11T13:54:34;28.10;1.00
52609;DHT22;38503;48.544;12.142;2022-08-11T13:57:10;28.20;1.00
52609;DHT22;38503;48.544;12.142;2022-08-11T13:59:59;28.60;1.00
52609;DHT22;38503;48.544;12.142;2022-08-11T14:02:51;28.50;1.00
52609;DHT22;38503;48.544;12.142;2022-08-11T14:05:25;28.40;1.00
52609;DHT22;38503;48.544;12.142;2022-08-11T14:08:01;28.70;1.00
52609;DHT22;38503;48.544;12.142;2022-08-11T14:10:30;28.90;1.00
52609;DHT22;38503;48.544;12.142;2022-08-11T14:13:06;29.10;1.00
52609;DHT22;38503;48.544;12.142;2022-08-11T14:15:55;29.20;1.00
52609;DHT22;38503;48.544;12.142;2022-08-11T14:18:29;29.10;1.00
52609;DHT22;38503;48.544;12.142;2022-08-11T14:20:58;28.80;1.00
52609;DHT22;38503;48.544;12.142;2022-08-11T14:23:51;28.60;1.00
52609;DHT22;38503;48.544;12.142;2022-08-11T14:26:21;28.40;1.00
52609;DHT22;38503;48.544;12.142;2022-08-11T14:31:39;28.70;1.00
52609;DHT22;38503;48.544;12.142;2022-08-11T14:34:09;28.40;1.00
52609;DHT22;38503;48.544;12.142;2022-08-11T14:36:42;28.50;1.00
52609;DHT22;38503;48.544;12.142;2022-08-11T14:39:14;28.20;1.00
52609;DHT22;38503;48.544;12.142;2022-08-11T14:42:05;28.10;1.00
52609;DHT22;38503;48.544;12.142;2022-08-11T14:44:57;28.00;1.00
52609;DHT22;38503;48.544;12.142;2022-08-11T14:47:47;27.90;1.00
52609;DHT22;38503;48.544;12.142;2022-08-11T14:50:21;28.30;1.00
52609;DHT22;38503;48.544;12.142;2022-08-11T14:52:51;28.10;1.00
52609;DHT22;38503;48.544;12.142;2022-08-11T14:55:23;27.90;1.00
52609;DHT22;38503;48.544;12.142;2022-08-11T14:58:11;28.10;1.00
52609;DHT22;38503;48.544;12.142;2022-08-11T15:00:40;27.90;1.00
52609;DHT22;38503;48.544;12.142;2022-08-11T15:03:10;27.80;1.00
52609;DHT22;38503;48.544;12.142;2022-08-11T15:05:52;27.70;1.00
52609;DHT22;38503;48.544;12.142;2022-08-11T15:08:28;27.30;1.00
52609;DHT22;38503;48.544;12.142;2022-08-11T15:11:17;27.20;1.00
52609;DHT22;38503;48.544;12.142;2022-08-11T15:14:05;27.00;1.00
52609;DHT22;38503;48.544;12.142;2022-08-11T15:16:41;26.60;1.00
52609;DHT22;38503;48.544;12.142;2022-08-11T15:19:32;26.70;1.00
52609;DHT22;38503;48.544;12.142;2022-08-11T15:22:07;26.80;1.00
52609;DHT22;38503;48.544;12.142;2022-08-11T15:24:56;26.90;1.00
52609;DHT22;38503;48.544;12.142;2022-08-11T15:27:23;27.20;1.00
52609;DHT22;38503;48.544;12.142;2022-08-11T15:30:09;27.20;1.00
52609;DHT22;38503;48.544;12.142;2022-08-11T15:33:10;27.20;1.00
52609;DHT22;38503;48.544;12.142;2022-08-11T15:35:56;27.20;1.00
52609;DHT22;38503;48.544;12.142;2022-08-11T15:38:58;27.00;1.00
52609;DHT22;38503;48.544;12.142;2022-08-11T15:41:42;27.00;1.00
52609;DHT22;38503;48.544;12.142;2022-08-11T15:44:32;27.00;1.00
52609;DHT22;38503;48.544;12.142;2022-08-11T15:47:45;27.00;1.00
52609;DHT22;38503;48.544;12.142;2022-08-11T15:50:17;27.10;1.00
52609;DHT22;38503;48.544;12.142;2022-08-11T15:52:51;27.20;1.00
52609;DHT22;38503;48.544;12.142;2022-08-11T15:55:19;26.90;1.00
52609;DHT22;38503;48.544;12.142;2022-08-11T15:57:48;27.00;1.00
52609;DHT22;38503;48.544;12.142;2022-08-11T16:00:39;26.90;1.00
52609;DHT22;38503;48.544;12.142;2022-08-11T16:03:44;26.70;1.00
52609;DHT22;38503;48.544;12.142;2022-08-11T16:06:58;26.60;1.00
52609;DHT22;38503;48.544;12.142;2022-08-11T16:09:31;27.00;1.00
52609;DHT22;38503;48.544;12.142;2022-08-11T16:12:17;26.90;1.00
52609;DHT22;38503;48.544;12.142;2022-08-11T16:14:55;26.70;1.00
52609;DHT22;38503;48.544;12.142;2022-08-11T16:17:56;26.70;1.00
52609;DHT22;38503;48.544;12.142;2022-08-11T16:20:27;26.60;1.00
52609;DHT22;38503;48.544;12.142;2022-08-11T16:23:01;26.70;1.00
52609;DHT22;38503;48.544;12.142;2022-08-11T16:25:32;26.60;1.00
52609;DHT22;38503;48.544;12.142;2022-08-11T16:28:21;26.40;1.00
52609;DHT22;38503;48.544;12.142;2022-08-11T16:30:49;26.30;1.00
52609;DHT22;38503;48.544;12.142;2022-08-11T16:33:17;26.30;1.00
52609;DHT22;38503;48.544;12.142;2022-08-11T16:36:07;26.30;1.00
52609;DHT22;38503;48.544;12.142;2022-08-11T16:38:55;26.30;1.00
52609;DHT22;38503;48.544;12.142;2022-08-11T16:41:25;26.20;1.00
52609;DHT22;38503;48.544;12.142;2022-08-11T16:44:13;26.20;1.00
52609;DHT22;38503;48.544;12.142;2022-08-11T16:47:10;26.20;1.00
52609;DHT22;38503;48.544;12.142;2022-08-11T16:49:43;26.20;1.00
52609;DHT22;38503;48.544;12.142;2022-08-11T16:52:19;26.00;1.00
52609;DHT22;38503;48.544;12.142;2022-08-11T16:54:47;26.00;1.00
52609;DHT22;38503;48.544;12.142;2022-08-11T16:57:17;25.90;1.00
52609;DHT22;38503;48.544;12.142;2022-08-11T17:00:07;25.80;1.00
52609;DHT22;38503;48.544;12.142;2022-08-11T17:02:44;25.60;1.00
52609;DHT22;38503;48.544;12.142;2022-08-11T17:05:32;25.60;1.00
52609;DHT22;38503;48.544;12.142;2022-08-11T17:08:29;25.60;1.00
52609;DHT22;38503;48.544;12.142;2022-08-11T17:11:27;25.70;1.00
52609;DHT22;38503;48.544;12.142;2022-08-11T17:14:16;25.70;1.00
52609;DHT22;38503;48.544;12.142;2022-08-11T17:17:05;25.80;1.00
52609;DHT22;38503;48.544;12.142;2022-08-11T17:19:33;25.80;1.00
52609;DHT22;38503;48.544;12.142;2022-08-11T17:22:25;25.80;1.00
52609;DHT22;38503;48.544;12.142;2022-08-11T17:25:14;25.70;1.00
52609;DHT22;38503;48.544;12.142;2022-08-11T17:27:42;25.50;1.00
52609;DHT22;38503;48.544;12.142;2022-08-11T17:30:10;25.50;1.00
52609;DHT22;38503;48.544;12.142;2022-08-11T17:32:47;25.80;1.00
52609;DHT22;38503;48.544;12.142;2022-08-11T17:35:35;25.70;1.00
52609;DHT22;38503;48.544;12.142;2022-08-11T17:40:38;25.60;1.00
52609;DHT22;38503;48.544;12.142;2022-08-11T17:43:28;25.60;1.00
52609;DHT22;38503;48.544;12.142;2022-08-11T17:46:15;25.60;1.00
52609;DHT22;38503;48.544;12.142;2022-08-11T17:49:02;25.60;1.00
52609;DHT22;38503;48.544;12.142;2022-08-11T17:51:30;25.60;1.00
52609;DHT22;38503;48.544;12.142;2022-08-11T17:54:16;25.50;1.00
52609;DHT22;38503;48.544;12.142;2022-08-11T17:57:02;25.40;1.00
52609;DHT22;38503;48.544;12.142;2022-08-11T17:59:50;25.30;1.00
52609;DHT22;38503;48.544;12.142;2022-08-11T18:02:25;25.10;1.00
52609;DHT22;38503;48.544;12.142;2022-08-11T18:05:14;25.10;1.00
52609;DHT22;38503;48.544;12.142;2022-08-11T18:07:44;25.00;1.00
52609;DHT22;38503;48.544;12.142;2022-08-11T18:10:31;24.80;1.00
52609;DHT22;38503;48.544;12.142;2022-08-11T18:13:21;24.70;1.00
52609;DHT22;38503;48.544;12.142;2022-08-11T18:16:08;24.60;1.00
52609;DHT22;38503;48.544;12.142;2022-08-11T18:18:54;24.60;1.00
52609;DHT22;38503;48.544;12.142;2022-08-11T18:21:44;24.40;1.00
52609;DHT22;38503;48.544;12.142;2022-08-11T18:24:46;24.40;1.00
52609;DHT22;38503;48.544;12.142;2022-08-11T18:27:33;24.30;1.00
52609;DHT22;38503;48.544;12.142;2022-08-11T18:30:19;24.20;1.00
52609;DHT22;38503;48.544;12.142;2022-08-11T18:33:06;24.10;1.00
52609;DHT22;38503;48.544;12.142;2022-08-11T18:36:24;24.00;1.00
52609;DHT22;38503;48.544;12.142;2022-08-11T18:39:12;23.90;1.00
52609;DHT22;38503;48.544;12.142;2022-08-11T18:42:03;23.80;1.00
52609;DHT22;38503;48.544;12.142;2022-08-11T18:44:58;23.70;1.00
52609;DHT22;38503;48.544;12.142;2022-08-11T18:47:48;23.70;1.00
52609;DHT22;38503;48.544;12.142;2022-08-11T18:50:37;23.50;1.00
52609;DHT22;38503;48.544;12.142;2022-08-11T18:53:48;23.40;1.00
52609;DHT22;38503;48.544;12.142;2022-08-11T18:56:35;23.20;1.00
52609;DHT22;38503;48.544;12.142;2022-08-11T18:59:24;23.10;1.00
52609;DHT22;38503;48.544;12.142;2022-08-11T19:02:11;23.00;1.00
52609;DHT22;38503;48.544;12.142;2022-08-11T19:05:07;22.90;1.00
52609;DHT22;38503;48.544;12.142;2022-08-11T19:08:14;22.70;1.00
52609;DHT22;38503;48.544;12.142;2022-08-11T19:11:04;22.70;1.00
52609;DHT22;38503;48.544;12.142;2022-08-11T19:13:52;22.50;1.00
52609;DHT22;38503;48.544;12.142;2022-08-11T19:16:40;22.40;1.00
52609;DHT22;38503;48.544;12.142;2022-08-11T19:19:28;22.40;1.00
52609;DHT22;38503;48.544;12.142;2022-08-11T19:22:15;22.20;1.00
52609;DHT22;38503;48.544;12.142;2022-08-11T19:25:04;22.20;1.00
52609;DHT22;38503;48.544;12.142;2022-08-11T19:27:52;22.10;1.00
52609;DHT22;38503;48.544;12.142;2022-08-11T19:30:38;22.10;1.00
52609;DHT22;38503;48.544;12.142;2022-08-11T19:33:25;22.00;1.00
52609;DHT22;38503;48.544;12.142;2022-08-11T19:36:31;21.90;1.00
52609;DHT22;38503;48.544;12.142;2022-08-11T19:39:19;21.80;1.00
52609;DHT22;38503;48.544;12.142;2022-08-11T19:42:07;21.70;1.00
52609;DHT22;38503;48.544;12.142;2022-08-11T19:44:54;21.70;1.00
52609;DHT22;38503;48.544;12.142;2022-08-11T19:47:41;21.60;1.00
52609;DHT22;38503;48.544;12.142;2022-08-11T19:50:48;21.50;17.50
52609;DHT22;38503;48.544;12.142;2022-08-11T19:53:34;21.50;40.00
52609;DHT22;38503;48.544;12.142;2022-08-11T19:56:23;21.40;53.40
52609;DHT22;38503;48.544;12.142;2022-08-11T19:59:09;21.40;60.50
52609;DHT22;38503;48.544;12.142;2022-08-11T20:01:54;21.30;87.30
52609;DHT22;38503;48.544;12.142;2022-08-11T20:04:41;21.20;99.90
52609;DHT22;38503;48.544;12.142;2022-08-11T20:07:27;21.10;99.90
52609;DHT22;38503;48.544;12.142;2022-08-11T20:10:16;21.10;99.90
52609;DHT22;38503;48.544;12.142;2022-08-11T20:13:06;21.00;99.90
52609;DHT22;38503;48.544;12.142;2022-08-11T20:15:53;20.90;99.90
52609;DHT22;38503;48.544;12.142;2022-08-11T20:18:40;20.80;99.90
52609;DHT22;38503;48.544;12.142;2022-08-11T20:21:27;20.70;99.90
52609;DHT22;38503;48.544;12.142;2022-08-11T20:24:14;20.60;1.00
52609;DHT22;38503;48.544;12.142;2022-08-11T20:27:03;20.60;1.00
52609;DHT22;38503;48.544;12.142;2022-08-11T20:29:52;20.50;1.00
52609;DHT22;38503;48.544;12.142;2022-08-11T20:32:39;20.40;1.00
52609;DHT22;38503;48.544;12.142;2022-08-11T20:35:25;20.40;1.00
52609;DHT22;38503;48.544;12.142;2022-08-11T20:38:12;20.30;1.00
52609;DHT22;38503;48.544;12.142;2022-08-11T20:41:00;20.30;1.00
52609;DHT22;38503;48.544;12.142;2022-08-11T20:43:47;20.20;66.90
52609;DHT22;38503;48.544;12.142;2022-08-11T20:46:38;20.10;99.90
52609;DHT22;38503;48.544;12.142;2022-08-11T20:49:30;20.20;99.90
52609;DHT22;38503;48.544;12.142;2022-08-11T20:52:26;20.00;99.90